Terminal Aerodrome Forecast
Issued by NWS

Home | Current Version | Previous Version | Text Only | Print | Product List | Glossary On
Versions: 1 2 3 4 5 6 7 8 9 10 11 12 13 14 15
923
FTUS42 TJSJ 260726 AAB
TAFJSJ
TAF AMD
TJSJ 260726Z 2607/2706 VRB04KT P6SM SCT060
      TEMPO 2607/2609 VRB18G30KT SHRA SCT015 BKN030
     FM261300 09010KT P6SM FEW030 SCT050
     FM261630 VRB10KT P6SM VCTS SCT030CB BKN050
     FM262300 10005KT P6SM SCT050=

USA.gov is the U.S. government's official web portal to all federal, state and local government web resources and services.